Oosterpark, Netherlands
Current Conditions -  °F | °C
As of 12:55 PM on Saturday 25 Oct 2014 (Local Time) from EHGG Reporting Station
Broken Clouds Broken Clouds  
Wind Chill: 57°   Ceiling: 2900
Heat Index: 57°   Visibility: 6mi
Dew Point: 54°   Wind: 8mph
Humidity: 88%   Direction: 220°SW
Pressure: 30.03"   Gusts: NA
Location:  53.22°N, 6.59°E
Report Text: EHGG 251055Z AUTO 22007KT 190V250 9999 FEW011 FEW015CB SCT024BKN029 14/12 Q1017 NOSIG
Loading
Personal Weather Stations






























Interactive Weather Map
Tropical Storm Tracking
New forecast layout! Learn more

10-Day Weather Forecast

Advertisements
Track Severe Weather on mobile